Time;durP1;ratioP1;P1;durP2;ratioP2;P2;SDS_P1;SDS_P2;PMS_P1;PMS_P2;Temp;Humidity;BMP_temperature;BMP_pressure;BME280_temperature;BME280_humidity;BME280_pressure;Samples;Min_cycle;Max_cycle;Signal;HPM_P1;HPM_P2
2023/05/24 00:01:11;;;;;;;15.40;6.13;;;9.70;99.90;;;;;;5033521;28;20474;-70
2023/05/24 00:03:38;;;;;;;18.53;6.20;;;9.60;99.90;;;;;;5030374;28;20446;-70
2023/05/24 00:06:05;;;;;;;14.30;5.73;;;9.60;99.90;;;;;;5034243;28;20863;-70
2023/05/24 00:08:32;;;;;;;12.50;5.40;;;9.60;99.90;;;;;;5029840;28;20450;-70
2023/05/24 00:10:59;;;;;;;13.80;5.23;;;9.50;99.90;;;;;;5032268;28;20536;-70
2023/05/24 00:13:26;;;;;;;7.67;5.00;;;9.50;99.90;;;;;;5034840;28;20487;-69
2023/05/24 00:15:54;;;;;;;14.03;5.70;;;9.50;99.90;;;;;;5030420;28;20477;-70
2023/05/24 00:18:20;;;;;;;10.37;4.50;;;9.40;99.90;;;;;;5029886;28;21000;-70
2023/05/24 00:20:47;;;;;;;19.07;5.67;;;9.40;99.90;;;;;;5029841;28;20460;-70
2023/05/24 00:23:14;;;;;;;13.67;4.90;;;9.30;99.90;;;;;;5041946;28;20445;-70
2023/05/24 00:25:40;;;;;;;14.50;5.70;;;9.30;99.90;;;;;;5030168;28;20450;-70
2023/05/24 00:28:07;;;;;;;9.60;5.20;;;9.30;99.90;;;;;;5037808;28;20575;-70
2023/05/24 00:30:34;;;;;;;18.63;5.53;;;9.30;99.90;;;;;;5036624;28;20453;-70
2023/05/24 00:33:02;;;;;;;11.50;5.03;;;9.20;99.90;;;;;;5034805;28;20544;-70
2023/05/24 00:35:28;;;;;;;12.00;5.60;;;9.20;99.90;;;;;;5037953;28;20947;-70
2023/05/24 00:37:56;;;;;;;13.70;6.03;;;9.20;99.90;;;;;;5037897;28;20458;-70
2023/05/24 00:40:22;;;;;;;17.87;6.03;;;9.10;99.90;;;;;;5030230;28;20827;-70
2023/05/24 00:42:49;;;;;;;9.07;5.70;;;9.10;99.90;;;;;;5033966;28;20523;-70
2023/05/24 00:45:15;;;;;;;17.43;6.20;;;9.00;99.90;;;;;;5041566;28;20454;-70
2023/05/24 00:47:42;;;;;;;16.30;5.87;;;9.00;99.90;;;;;;5032052;28;20930;-70
2023/05/24 00:50:11;;;;;;;12.80;4.97;;;9.00;99.90;;;;;;5029731;28;20454;-70
2023/05/24 00:52:39;;;;;;;22.83;5.67;;;9.00;99.90;;;;;;5037333;28;20473;-70
2023/05/24 00:55:07;;;;;;;16.33;6.20;;;9.00;99.90;;;;;;5034202;28;20837;-70
2023/05/24 00:57:34;;;;;;;16.77;6.27;;;8.90;99.90;;;;;;5033218;28;20517;-70
2023/05/24 01:00:01;;;;;;;15.13;5.47;;;8.90;99.90;;;;;;5033307;28;20461;-70
2023/05/24 01:02:28;;;;;;;12.70;5.70;;;8.90;99.90;;;;;;5033086;28;20921;-70
2023/05/24 01:04:55;;;;;;;10.30;5.40;;;8.90;99.90;;;;;;5035928;28;20453;-70
2023/05/24 01:07:27;;;;;;;16.37;5.93;;;8.90;99.90;;;;;;5035787;28;20457;-70
2023/05/24 01:10:06;;;;;;;16.23;5.80;;;9.00;99.90;;;;;;5033162;28;20822;-70
2023/05/24 01:12:43;;;;;;;13.47;5.60;;;9.00;99.90;;;;;;5041161;28;20505;-70
2023/05/24 01:15:22;;;;;;;19.17;5.70;;;9.00;99.90;;;;;;5045111;28;20531;-70
2023/05/24 01:17:54;;;;;;;13.53;5.73;;;9.00;99.90;;;;;;5045681;28;20987;-70
2023/05/24 01:20:23;;;;;;;20.30;5.33;;;9.10;99.90;;;;;;5039369;28;20980;-70
2023/05/24 01:23:28;;;;;;;14.77;5.23;;;9.10;99.90;;;;;;5033001;28;20474;-70
2023/05/24 01:26:08;;;;;;;17.53;5.73;;;9.10;99.90;;;;;;5033139;28;20945;-70
2023/05/24 01:28:37;;;;;;;16.60;5.20;;;9.10;99.90;;;;;;5032786;28;20544;-70
2023/05/24 01:31:04;;;;;;;19.90;5.37;;;9.10;99.90;;;;;;5036770;28;20540;-70
2023/05/24 01:33:32;;;;;;;17.63;5.00;;;9.00;99.90;;;;;;5039963;28;20500;-70
2023/05/24 01:35:58;;;;;;;18.63;5.77;;;8.90;99.90;;;;;;5038753;28;20458;-70
2023/05/24 01:38:25;;;;;;;19.97;5.10;;;8.90;99.90;;;;;;5032984;28;20577;-70
2023/05/24 01:40:59;;;;;;;13.53;5.47;;;8.90;99.90;;;;;;5032906;28;20888;-70
2023/05/24 01:43:34;;;;;;;11.67;4.80;;;8.90;99.90;;;;;;5033272;28;20449;-70
2023/05/24 01:46:10;;;;;;;10.70;4.63;;;8.80;99.90;;;;;;5032991;28;20458;-70
2023/05/24 01:48:47;;;;;;;15.40;4.47;;;8.70;99.90;;;;;;5043360;28;20940;-70
2023/05/24 01:51:21;;;;;;;13.30;4.10;;;8.70;99.90;;;;;;5048140;28;20542;-70
2023/05/24 01:53:50;;;;;;;14.13;4.90;;;8.60;99.90;;;;;;5040165;28;20492;-70
2023/05/24 01:56:19;;;;;;;13.43;4.13;;;8.60;99.90;;;;;;5032338;28;20458;-70
2023/05/24 01:58:47;;;;;;;11.93;4.27;;;8.50;99.90;;;;;;5036265;28;21019;-70
2023/05/24 02:01:15;;;;;;;22.47;4.90;;;8.50;99.90;;;;;;5036119;28;20482;-70
2023/05/24 02:03:42;;;;;;;16.27;4.83;;;8.40;99.90;;;;;;5038364;28;20828;-70
2023/05/24 02:06:09;;;;;;;13.30;4.80;;;8.40;99.90;;;;;;5038040;28;20450;-70
2023/05/24 02:08:36;;;;;;;15.50;4.27;;;8.30;99.90;;;;;;5038480;28;21020;-70
2023/05/24 02:11:02;;;;;;;10.07;3.93;;;8.30;99.90;;;;;;5031755;28;20500;-70
2023/05/24 02:13:29;;;;;;;21.50;4.80;;;8.20;99.90;;;;;;5035783;28;20460;-70
2023/05/24 02:15:55;;;;;;;25.83;5.70;;;8.20;99.90;;;;;;5040531;28;20480;-70
2023/05/24 02:18:23;;;;;;;12.20;4.00;;;8.10;99.90;;;;;;5032818;28;21024;-70
2023/05/24 02:20:50;;;;;;;11.30;4.27;;;8.10;99.90;;;;;;5031719;28;20532;-70
2023/05/24 02:23:17;;;;;;;10.80;4.00;;;8.00;99.90;;;;;;5036535;28;20460;-70
2023/05/24 02:25:44;;;;;;;22.30;4.60;;;8.10;99.90;;;;;;5032167;28;20449;-70
2023/05/24 02:28:10;;;;;;;14.93;4.50;;;8.00;99.90;;;;;;5032064;28;20450;-70
2023/05/24 02:30:38;;;;;;;14.50;5.03;;;8.00;99.90;;;;;;5037013;28;20868;-70
2023/05/24 02:33:05;;;;;;;14.17;4.00;;;8.00;99.90;;;;;;5031919;28;20826;-70
2023/05/24 02:35:33;;;;;;;11.60;4.80;;;8.00;99.90;;;;;;5031505;28;21060;-70
2023/05/24 02:38:00;;;;;;;13.40;4.80;;;7.90;99.90;;;;;;5031976;28;20516;-70
2023/05/24 02:40:26;;;;;;;14.73;4.87;;;7.90;99.90;;;;;;5031565;28;20549;-70
2023/05/24 02:42:53;;;;;;;13.73;4.77;;;7.90;99.90;;;;;;5031780;28;20904;-70
2023/05/24 02:45:20;;;;;;;14.37;4.70;;;7.90;99.90;;;;;;5047340;28;20456;-69
2023/05/24 02:47:46;;;;;;;11.23;4.20;;;7.90;99.90;;;;;;5039479;28;20520;-70
2023/05/24 02:50:13;;;;;;;15.97;4.27;;;7.80;99.90;;;;;;5031364;28;20524;-70
2023/05/24 02:52:41;;;;;;;17.37;4.27;;;7.80;99.90;;;;;;5031531;28;20879;-70
2023/05/24 02:55:09;;;;;;;17.97;4.20;;;7.80;99.90;;;;;;5031519;28;20486;-70
2023/05/24 02:57:36;;;;;;;16.87;5.03;;;7.80;99.90;;;;;;5031373;28;20504;-70
2023/05/24 03:00:04;;;;;;;12.13;5.00;;;7.70;99.90;;;;;;5031227;28;20450;-70
2023/05/24 03:02:32;;;;;;;18.67;5.10;;;7.70;99.90;;;;;;5034106;28;20466;-71
2023/05/24 03:04:59;;;;;;;11.13;5.30;;;7.70;99.90;;;;;;5031387;28;20450;-70
2023/05/24 03:07:26;;;;;;;14.30;5.80;;;7.70;99.90;;;;;;5032243;28;20447;-70
2023/05/24 03:09:53;;;;;;;17.47;5.57;;;7.60;99.90;;;;;;5043083;28;20458;-69
2023/05/24 03:12:20;;;;;;;18.53;5.43;;;7.60;99.90;;;;;;5033909;28;20466;-70
2023/05/24 03:14:47;;;;;;;11.93;5.90;;;7.60;99.90;;;;;;5034966;28;20540;-70
2023/05/24 03:17:13;;;;;;;10.80;5.10;;;7.60;99.90;;;;;;5031262;28;20454;-70
2023/05/24 03:19:40;;;;;;;15.10;5.97;;;7.60;99.90;;;;;;5040770;28;20522;-70
2023/05/24 03:22:07;;;;;;;16.47;6.10;;;7.50;99.90;;;;;;5036263;28;20484;-70
2023/05/24 03:24:34;;;;;;;12.60;5.03;;;7.50;99.90;;;;;;5030818;28;20508;-70
2023/05/24 03:27:02;;;;;;;12.50;5.20;;;7.50;99.90;;;;;;5030874;28;20458;-69
2023/05/24 03:29:28;;;;;;;12.60;5.20;;;7.40;99.90;;;;;;5035421;28;20456;-70
2023/05/24 03:31:55;;;;;;;11.77;4.80;;;7.40;99.90;;;;;;5036594;28;20989;-70
2023/05/24 03:34:22;;;;;;;15.53;4.87;;;7.40;99.90;;;;;;5034113;28;20494;-70
2023/05/24 03:36:48;;;;;;;17.27;5.20;;;7.40;99.90;;;;;;5038397;28;20879;-70
2023/05/24 03:39:15;;;;;;;10.97;4.63;;;7.40;99.90;;;;;;5030578;28;21004;-70
2023/05/24 03:41:42;;;;;;;16.80;5.30;;;7.30;99.90;;;;;;5040084;28;20504;-70
2023/05/24 03:44:09;;;;;;;12.03;5.10;;;7.30;99.90;;;;;;5035827;28;20892;-70
2023/05/24 03:46:36;;;;;;;14.13;4.60;;;7.20;99.90;;;;;;5030551;28;20561;-70
2023/05/24 03:49:03;;;;;;;15.17;5.50;;;7.20;99.90;;;;;;5033906;28;20934;-70
2023/05/24 03:51:29;;;;;;;12.30;5.00;;;7.10;99.90;;;;;;5044118;28;20477;-70
2023/05/24 03:53:56;;;;;;;9.07;4.10;;;7.00;99.90;;;;;;5035188;28;20453;-70
2023/05/24 03:56:23;;;;;;;13.37;4.63;;;7.00;99.90;;;;;;5041601;28;20938;-70
2023/05/24 03:58:51;;;;;;;25.37;5.63;;;7.10;99.90;;;;;;5035059;28;20470;-70
2023/05/24 04:01:19;;;;;;;12.73;5.70;;;7.10;99.90;;;;;;5033990;28;20504;-70
2023/05/24 04:03:46;;;;;;;11.50;4.90;;;7.10;99.90;;;;;;5038683;28;20554;-70
2023/05/24 04:06:13;;;;;;;11.33;5.57;;;7.10;99.90;;;;;;5038386;28;20458;-70
2023/05/24 04:08:39;;;;;;;10.90;4.93;;;7.20;99.90;;;;;;5029798;28;20462;-70
2023/05/24 04:11:06;;;;;;;13.53;4.10;;;7.20;99.90;;;;;;5036223;28;20499;-70
2023/05/24 04:13:33;;;;;;;16.93;5.27;;;7.20;99.90;;;;;;5040166;28;20456;-70
2023/05/24 04:15:59;;;;;;;10.40;4.00;;;7.20;99.90;;;;;;5030282;28;20485;-70
2023/05/24 04:18:27;;;;;;;17.90;4.40;;;7.20;99.90;;;;;;5038230;28;20463;-70
2023/05/24 04:20:54;;;;;;;16.90;4.70;;;7.20;99.90;;;;;;5029998;28;20478;-69
2023/05/24 04:23:20;;;;;;;15.37;4.30;;;7.10;99.90;;;;;;5046971;28;20515;-70
2023/05/24 04:25:47;;;;;;;21.40;4.57;;;7.10;99.90;;;;;;5030264;28;20504;-70
2023/05/24 04:28:14;;;;;;;15.97;5.03;;;7.10;99.90;;;;;;5030141;28;20454;-69
2023/05/24 04:30:40;;;;;;;19.80;5.17;;;7.10;99.90;;;;;;5041195;28;20479;-70
2023/05/24 04:33:08;;;;;;;12.83;4.17;;;7.20;99.90;;;;;;5033979;28;20828;-70
2023/05/24 04:35:36;;;;;;;16.17;4.90;;;7.20;99.90;;;;;;5033627;28;20493;-70
2023/05/24 04:38:03;;;;;;;13.70;4.07;;;7.30;99.90;;;;;;5034111;28;20450;-70
2023/05/24 04:40:30;;;;;;;14.53;4.13;;;7.30;99.90;;;;;;5042037;28;20452;-70
2023/05/24 04:42:56;;;;;;;25.87;5.00;;;7.30;99.90;;;;;;5033938;28;20477;-70
2023/05/24 04:45:23;;;;;;;17.33;4.10;;;7.40;99.90;;;;;;5038223;28;20450;-70
2023/05/24 04:47:50;;;;;;;11.90;4.23;;;7.40;99.90;;;;;;5037261;28;20548;-70
2023/05/24 04:50:17;;;;;;;26.93;4.33;;;7.50;99.90;;;;;;5033969;28;20454;-70
2023/05/24 04:52:45;;;;;;;18.23;4.80;;;7.50;99.90;;;;;;5036268;28;20474;-70
2023/05/24 04:55:11;;;;;;;13.27;4.93;;;7.60;99.90;;;;;;5046030;28;20486;-70
2023/05/24 04:57:38;;;;;;;13.23;4.50;;;7.60;99.90;;;;;;5033429;28;20516;-70
2023/05/24 05:00:06;;;;;;;7.50;3.53;;;7.70;99.90;;;;;;5033486;28;20462;-70
2023/05/24 05:02:33;;;;;;;20.63;4.80;;;7.80;99.90;;;;;;5041041;28;21041;-70
2023/05/24 05:05:00;;;;;;;9.03;4.30;;;7.90;99.90;;;;;;5033699;28;20508;-70
2023/05/24 05:07:27;;;;;;;15.30;4.90;;;8.00;99.90;;;;;;5041646;28;20450;-70
2023/05/24 05:09:56;;;;;;;25.20;4.97;;;8.20;99.90;;;;;;5033262;28;20468;-70
2023/05/24 05:12:22;;;;;;;15.00;4.80;;;8.30;99.90;;;;;;5032678;28;20847;-70
2023/05/24 05:14:49;;;;;;;15.50;4.10;;;8.40;99.90;;;;;;5041126;28;20482;-69
2023/05/24 05:17:16;;;;;;;10.97;4.50;;;8.50;99.90;;;;;;5037047;28;20560;-70
2023/05/24 05:19:42;;;;;;;17.60;5.10;;;8.60;99.90;;;;;;5032570;28;20908;-70
2023/05/24 05:22:09;;;;;;;13.60;4.10;;;8.80;99.90;;;;;;5040814;28;20477;-69
2023/05/24 05:24:36;;;;;;;30.03;5.07;;;9.10;99.90;;;;;;5037989;28;20454;-69
2023/05/24 05:27:05;;;;;;;15.10;5.20;;;9.50;99.90;;;;;;5032877;28;21133;-71
2023/05/24 05:29:31;;;;;;;13.37;4.93;;;9.80;99.90;;;;;;5046392;28;21091;-70
2023/05/24 05:31:58;;;;;;;24.57;4.90;;;10.10;99.90;;;;;;5041046;28;20482;-69
2023/05/24 05:34:25;;;;;;;30.43;5.57;;;10.50;99.90;;;;;;5038264;28;20895;-69
2023/05/24 05:36:51;;;;;;;17.90;4.80;;;10.60;99.90;;;;;;5038752;28;20441;-69
2023/05/24 05:39:18;;;;;;;16.93;4.30;;;10.70;99.90;;;;;;5037667;28;20447;-69
2023/05/24 05:41:44;;;;;;;15.00;4.13;;;10.80;99.90;;;;;;5039106;28;20472;-69
2023/05/24 05:44:13;;;;;;;21.63;5.00;;;11.00;99.90;;;;;;5032729;28;20456;-69
2023/05/24 05:46:42;;;;;;;17.57;4.60;;;11.10;99.90;;;;;;5032288;28;20446;-70
2023/05/24 05:49:09;;;;;;;25.80;5.23;;;11.40;99.90;;;;;;5033823;28;20499;-74
2023/05/24 05:51:37;;;;;;;18.87;4.77;;;11.70;99.90;;;;;;5037297;28;20501;-74
2023/05/24 05:54:04;;;;;;;15.33;4.67;;;11.50;99.90;;;;;;5032609;28;20600;-74
2023/05/24 05:56:30;;;;;;;15.37;4.47;;;11.40;99.90;;;;;;5033875;28;20544;-74
2023/05/24 05:58:57;;;;;;;17.90;4.20;;;11.30;99.90;;;;;;5031764;28;20535;-74
2023/05/24 06:01:25;;;;;;;14.97;4.97;;;11.10;99.90;;;;;;5042377;28;20473;-73
2023/05/24 06:03:52;;;;;;;16.97;4.30;;;11.10;99.90;;;;;;5044820;28;20453;-73
2023/05/24 06:06:18;;;;;;;18.67;4.40;;;11.20;99.90;;;;;;5045399;28;20454;-74
2023/05/24 06:08:45;;;;;;;18.63;5.47;;;11.20;99.90;;;;;;5032031;28;20933;-74
2023/05/24 06:11:11;;;;;;;13.03;4.23;;;11.30;99.90;;;;;;5032509;28;20883;-74
2023/05/24 06:13:38;;;;;;;20.00;4.77;;;11.30;99.90;;;;;;5036834;28;20450;-74
2023/05/24 06:16:07;;;;;;;14.30;4.90;;;11.30;99.90;;;;;;5032122;28;20532;-74
2023/05/24 06:18:35;;;;;;;13.17;4.13;;;11.40;99.90;;;;;;5039466;28;20465;-74
2023/05/24 06:21:02;;;;;;;24.53;4.70;;;11.50;99.90;;;;;;5042167;28;20489;-75
2023/05/24 06:23:28;;;;;;;16.60;4.90;;;11.70;99.90;;;;;;5039808;28;20815;-74
2023/05/24 06:25:55;;;;;;;14.00;3.87;;;11.80;99.90;;;;;;5039235;28;20454;-74
2023/05/24 06:28:22;;;;;;;10.53;3.63;;;11.80;99.90;;;;;;5031824;28;20526;-74
2023/05/24 06:30:48;;;;;;;16.80;4.03;;;12.00;99.90;;;;;;5043932;28;20460;-74
2023/05/24 06:33:15;;;;;;;17.70;5.10;;;12.20;99.90;;;;;;5032407;28;20523;-73
2023/05/24 06:35:43;;;;;;;17.13;4.13;;;12.20;99.90;;;;;;5031856;28;20481;-73
2023/05/24 06:38:10;;;;;;;16.30;4.27;;;12.30;99.90;;;;;;5036922;28;21204;-74
2023/05/24 06:40:36;;;;;;;12.00;4.53;;;12.20;99.90;;;;;;5034404;28;20515;-74
2023/05/24 06:43:04;;;;;;;14.47;5.37;;;12.00;99.90;;;;;;5043974;28;20462;-74
2023/05/24 06:45:31;;;;;;;20.30;4.20;;;11.90;99.90;;;;;;5031800;28;20452;-74
2023/05/24 06:47:57;;;;;;;21.17;4.43;;;11.90;99.90;;;;;;5038639;28;20545;-74
2023/05/24 06:50:24;;;;;;;26.37;4.90;;;11.70;99.90;;;;;;5031410;28;20512;-74
2023/05/24 06:52:52;;;;;;;11.53;3.43;;;11.60;99.90;;;;;;5038902;28;20547;-74
2023/05/24 06:55:20;;;;;;;18.67;4.30;;;11.70;99.90;;;;;;5031324;28;20871;-74
2023/05/24 06:57:46;;;;;;;19.10;4.80;;;11.60;99.90;;;;;;5041747;28;20460;-73
2023/05/24 07:00:14;;;;;;;16.13;4.93;;;11.60;99.90;;;;;;5045617;28;20480;-74
2023/05/24 07:02:41;;;;;;;17.93;4.30;;;11.40;99.90;;;;;;5045363;28;20465;-74
2023/05/24 07:05:10;;;;;;;19.77;4.40;;;11.20;99.90;;;;;;5036401;28;20453;-72
2023/05/24 07:07:38;;;;;;;14.73;4.20;;;11.10;99.90;;;;;;5037801;28;21035;-73
2023/05/24 07:10:09;;;;;;;22.10;4.50;;;11.00;99.90;;;;;;5031273;28;20924;-73
2023/05/24 07:12:35;;;;;;;21.00;5.30;;;11.00;99.90;;;;;;5031516;28;20485;-73
2023/05/24 07:15:02;;;;;;;14.23;4.80;;;11.00;99.90;;;;;;5044894;28;20522;-73
2023/05/24 07:17:29;;;;;;;11.93;4.30;;;11.00;99.90;;;;;;5031076;28;20449;-74
2023/05/24 07:19:56;;;;;;;12.47;4.57;;;10.90;99.90;;;;;;5038601;28;20512;-74
2023/05/24 07:22:24;;;;;;;14.63;4.20;;;10.90;99.90;;;;;;5040953;28;20994;-73
2023/05/24 07:24:51;;;;;;;14.80;4.10;;;10.90;99.90;;;;;;5031842;28;20512;-74
2023/05/24 07:27:19;;;;;;;15.23;4.30;;;11.00;99.90;;;;;;5030925;28;20796;-73
2023/05/24 07:29:46;;;;;;;17.50;4.00;;;11.00;99.90;;;;;;5037165;28;20452;-74
2023/05/24 07:32:12;;;;;;;27.83;4.97;;;11.00;99.90;;;;;;5031065;28;20466;-75
2023/05/24 07:34:40;;;;;;;16.73;4.27;;;10.90;99.90;;;;;;5030938;28;20508;-75
2023/05/24 07:37:06;;;;;;;12.07;4.63;;;11.00;99.90;;;;;;5031144;28;20485;-74
2023/05/24 07:39:33;;;;;;;14.80;3.97;;;11.00;99.90;;;;;;5030375;28;20458;-74
2023/05/24 07:42:00;;;;;;;17.37;4.90;;;11.10;99.90;;;;;;5032358;28;20562;-74
2023/05/24 07:44:28;;;;;;;20.10;6.30;;;11.10;99.90;;;;;;5030511;28;20446;-74
2023/05/24 07:46:55;;;;;;;20.90;4.70;;;11.10;99.90;;;;;;5036735;28;20449;-74
2023/05/24 07:49:22;;;;;;;13.03;4.53;;;11.10;99.90;;;;;;5034656;28;20457;-74
2023/05/24 07:51:49;;;;;;;16.37;4.77;;;11.10;99.90;;;;;;5037241;28;20486;-74
2023/05/24 07:54:15;;;;;;;16.27;4.17;;;11.20;99.90;;;;;;5037491;28;20556;-73
2023/05/24 07:56:42;;;;;;;13.07;3.97;;;11.30;99.90;;;;;;5044388;28;20535;-74
2023/05/24 07:59:09;;;;;;;11.60;4.40;;;11.40;99.90;;;;;;5029658;28;20541;-74
2023/05/24 08:01:37;;;;;;;13.07;4.50;;;11.60;99.90;;;;;;5034577;28;20973;-74
2023/05/24 08:04:03;;;;;;;14.30;4.93;;;11.80;99.90;;;;;;5038171;28;20521;-74
2023/05/24 08:06:31;;;;;;;14.07;5.17;;;12.00;99.90;;;;;;5036270;28;20527;-75
2023/05/24 08:08:58;;;;;;;19.17;4.50;;;12.40;99.90;;;;;;5029182;28;20511;-75
2023/05/24 08:11:25;;;;;;;14.33;4.90;;;12.70;99.90;;;;;;5029719;28;20469;-75
2023/05/24 08:13:52;;;;;;;16.57;4.80;;;13.10;99.90;;;;;;5035289;28;20485;-75
2023/05/24 08:16:18;;;;;;;14.90;4.67;;;13.50;99.90;;;;;;5035647;28;20500;-75
2023/05/24 08:18:46;;;;;;;16.47;5.50;;;13.70;99.90;;;;;;5030988;28;20461;-76
2023/05/24 08:21:13;;;;;;;29.00;5.50;;;13.50;99.90;;;;;;5037106;28;20527;-75
2023/05/24 08:23:40;;;;;;;14.27;5.67;;;13.30;99.90;;;;;;5036014;28;20453;-75
2023/05/24 08:26:07;;;;;;;13.90;5.00;;;13.00;99.90;;;;;;5031567;28;20473;-75
2023/05/24 08:28:34;;;;;;;21.50;5.13;;;12.90;99.90;;;;;;5029777;28;20535;-75
2023/05/24 08:31:01;;;;;;;17.13;5.00;;;12.90;99.90;;;;;;5044370;28;20473;-75
2023/05/24 08:33:28;;;;;;;19.37;5.33;;;13.10;99.90;;;;;;5029477;28;20548;-75
2023/05/24 08:35:56;;;;;;;20.80;5.37;;;13.30;99.90;;;;;;5029160;28;20485;-75
2023/05/24 08:38:23;;;;;;;17.13;4.87;;;13.40;99.90;;;;;;5029463;28;20864;-75
2023/05/24 08:40:49;;;;;;;15.33;5.20;;;13.50;99.90;;;;;;5034507;28;20468;-74
2023/05/24 08:43:17;;;;;;;22.63;5.60;;;13.50;99.90;;;;;;5033788;28;20509;-73
2023/05/24 08:45:45;;;;;;;16.00;4.47;;;13.60;99.90;;;;;;5031942;28;20521;-74
2023/05/24 08:48:12;;;;;;;16.10;4.60;;;13.90;99.90;;;;;;5045497;28;20448;-74
2023/05/24 08:50:39;;;;;;;17.00;4.83;;;14.30;99.90;;;;;;5031947;28;20449;-74
2023/05/24 08:53:10;;;;;;;19.33;5.00;;;14.60;99.90;;;;;;5029594;28;20934;-73
2023/05/24 08:55:38;;;;;;;20.73;4.80;;;14.90;99.90;;;;;;5042464;28;20993;-74
2023/05/24 08:58:05;;;;;;;16.67;5.10;;;15.20;99.90;;;;;;5033664;28;20463;-74
2023/05/24 09:00:31;;;;;;;28.50;5.67;;;15.60;99.90;;;;;;5037311;28;20507;-74
2023/05/24 09:02:59;;;;;;;15.07;5.40;;;15.50;99.90;;;;;;5035995;28;20491;-74
2023/05/24 09:05:29;;;;;;;20.50;5.93;;;15.40;99.90;;;;;;5033828;28;20457;-74
2023/05/24 09:07:56;;;;;;;13.00;5.27;;;15.50;99.90;;;;;;5029693;28;20536;-73
2023/05/24 09:10:25;;;;;;;19.47;4.83;;;15.40;99.90;;;;;;5042585;28;20952;-74
2023/05/24 09:12:56;;;;;;;13.10;3.90;;;15.30;99.90;;;;;;5030980;28;20473;-73
2023/05/24 09:15:23;;;;;;;12.07;5.20;;;15.00;99.90;;;;;;5033772;28;20553;-74
2023/05/24 09:17:50;;;;;;;14.63;4.80;;;14.90;99.90;;;;;;5032992;28;20551;-74
2023/05/24 09:20:17;;;;;;;17.23;5.63;;;15.00;99.90;;;;;;5043483;28;20457;-74
2023/05/24 09:22:48;;;;;;;15.70;5.20;;;15.00;99.90;;;;;;5038570;28;20512;-74
2023/05/24 09:25:14;;;;;;;11.23;5.20;;;14.90;99.90;;;;;;5033180;28;20580;-74
2023/05/24 09:27:48;;;;;;;16.00;5.10;;;14.90;99.90;;;;;;5042878;28;20446;-74
2023/05/24 09:30:15;;;;;;;18.63;5.20;;;15.00;99.90;;;;;;5040304;28;20451;-74
2023/05/24 09:32:56;;;;;;;15.43;5.20;;;15.40;99.90;;;;;;5034408;28;21259;-74
2023/05/24 09:35:25;;;;;;;13.63;4.40;;;15.60;99.90;;;;;;5032539;28;21029;-74
2023/05/24 09:37:56;;;;;;;22.57;5.63;;;15.50;99.90;;;;;;5042379;28;20483;-74
2023/05/24 09:40:23;;;;;;;19.80;4.90;;;15.60;99.90;;;;;;5038647;28;20560;-76
2023/05/24 09:43:03;;;;;;;15.10;5.50;;;15.90;99.90;;;;;;5035634;28;20515;-75
2023/05/24 09:45:30;;;;;;;9.77;4.80;;;15.80;99.90;;;;;;5032957;28;20454;-74
2023/05/24 09:47:57;;;;;;;22.70;5.27;;;15.60;99.90;;;;;;5040324;28;20447;-75
2023/05/24 09:50:25;;;;;;;19.60;5.47;;;15.50;99.90;;;;;;5043983;28;20455;-74
2023/05/24 09:52:53;;;;;;;14.63;5.30;;;15.40;99.90;;;;;;5034756;28;20476;-75
2023/05/24 09:55:20;;;;;;;15.70;5.10;;;15.40;99.90;;;;;;5038276;28;20454;-75
2023/05/24 09:57:52;;;;;;;12.77;5.17;;;15.50;99.90;;;;;;5032284;28;20973;-75
2023/05/24 10:00:22;;;;;;;17.80;4.67;;;15.50;99.90;;;;;;5031920;28;20458;-75
2023/05/24 10:03:01;;;;;;;13.40;4.93;;;15.60;99.90;;;;;;5035749;28;20856;-74
2023/05/24 10:05:28;;;;;;;20.10;5.07;;;15.60;99.90;;;;;;5039380;28;20521;-74
2023/05/24 10:07:55;;;;;;;18.53;5.23;;;15.60;99.90;;;;;;5043339;28;20543;-74
2023/05/24 10:10:22;;;;;;;15.40;4.70;;;15.60;99.90;;;;;;5035136;28;20508;-74
2023/05/24 10:12:51;;;;;;;12.90;4.90;;;15.40;99.90;;;;;;5040786;28;20473;-74
2023/05/24 10:15:18;;;;;;;11.00;4.90;;;15.00;99.90;;;;;;5039905;28;20452;-74
2023/05/24 10:17:45;;;;;;;23.67;5.40;;;15.00;99.90;;;;;;5035575;28;20552;-74
2023/05/24 10:20:12;;;;;;;16.90;5.23;;;15.00;99.90;;;;;;5041910;28;20875;-74
2023/05/24 10:22:45;;;;;;;16.50;4.60;;;15.10;99.90;;;;;;5040628;28;20481;-74
2023/05/24 10:25:17;;;;;;;11.70;4.50;;;15.20;99.90;;;;;;5032102;28;20793;-75
2023/05/24 10:27:45;;;;;;;18.40;5.40;;;15.20;99.90;;;;;;5031942;28;20446;-73
2023/05/24 10:30:19;;;;;;;14.87;5.10;;;15.30;99.90;;;;;;5047020;28;20492;-74
2023/05/24 10:32:48;;;;;;;15.17;5.20;;;15.40;99.90;;;;;;5032406;28;20733;-74
2023/05/24 10:35:17;;;;;;;13.40;5.47;;;15.50;99.90;;;;;;5038652;28;20507;-74
2023/05/24 10:37:46;;;;;;;16.97;5.77;;;15.40;99.90;;;;;;5033536;28;20490;-75
2023/05/24 10:40:19;;;;;;;13.40;4.90;;;15.50;99.90;;;;;;5031610;28;20504;-75
2023/05/24 10:42:46;;;;;;;10.40;4.80;;;15.60;99.90;;;;;;5031680;28;20489;-75
2023/05/24 10:45:34;;;;;;;21.37;5.73;;;15.80;99.90;;;;;;5031832;28;20512;-75
2023/05/24 10:48:08;;;;;;;12.10;4.57;;;15.90;99.90;;;;;;5039498;28;20460;-75
2023/05/24 10:50:36;;;;;;;16.50;4.97;;;16.00;99.90;;;;;;5035420;28;20471;-75
2023/05/24 10:53:13;;;;;;;14.03;4.60;;;16.20;99.90;;;;;;5030688;28;20424;-75
2023/05/24 10:55:54;;;;;;;10.70;4.50;;;16.20;99.90;;;;;;5033439;28;20489;-75
2023/05/24 10:58:23;;;;;;;18.27;4.83;;;16.20;99.90;;;;;;5039555;28;20646;-75
2023/05/24 11:00:53;;;;;;;10.13;5.13;;;16.20;99.90;;;;;;5031198;28;20457;-75
2023/05/24 11:03:23;;;;;;;15.33;4.70;;;16.30;99.90;;;;;;5035236;28;20539;-76
2023/05/24 11:05:52;;;;;;;10.50;4.87;;;16.40;99.90;;;;;;5035318;28;20421;-75
2023/05/24 11:08:30;;;;;;;13.73;4.90;;;16.30;99.90;;;;;;5037641;28;21028;-75
2023/05/24 11:11:12;;;;;;;17.83;5.73;;;16.40;99.90;;;;;;5031143;28;20460;-75
2023/05/24 11:13:40;;;;;;;14.70;5.10;;;16.40;99.90;;;;;;5036493;28;20453;-75
2023/05/24 11:16:09;;;;;;;12.63;4.77;;;16.60;99.90;;;;;;5030786;28;20500;-76
2023/05/24 11:18:37;;;;;;;14.67;4.40;;;16.70;99.90;;;;;;5037466;28;21026;-74
2023/05/24 11:21:05;;;;;;;10.30;4.20;;;17.00;99.90;;;;;;5038357;28;20478;-73
2023/05/24 11:23:32;;;;;;;13.80;4.87;;;17.20;99.90;;;;;;5039211;28;20424;-74
2023/05/24 11:25:59;;;;;;;15.87;5.37;;;16.70;99.90;;;;;;5030762;28;20510;-74
2023/05/24 11:28:25;;;;;;;18.07;5.37;;;16.40;99.90;;;;;;5037314;28;20500;-74
2023/05/24 11:30:52;;;;;;;14.43;5.50;;;16.30;99.90;;;;;;5039773;28;20448;-74
2023/05/24 11:33:22;;;;;;;16.50;5.37;;;16.30;99.90;;;;;;5035362;28;20450;-74
2023/05/24 11:35:50;;;;;;;9.83;4.37;;;16.30;99.90;;;;;;5033231;28;20424;-74
2023/05/24 11:38:18;;;;;;;13.60;5.00;;;16.40;99.90;;;;;;5030631;28;20682;-74
2023/05/24 11:40:48;;;;;;;14.07;4.90;;;16.40;99.90;;;;;;5029761;28;20458;-74
2023/05/24 11:43:16;;;;;;;15.80;5.33;;;16.30;99.90;;;;;;5030558;28;20947;-74
2023/05/24 11:45:45;;;;;;;19.37;5.10;;;16.20;99.90;;;;;;5030902;28;20508;-74
2023/05/24 11:48:12;;;;;;;18.57;5.57;;;16.20;99.90;;;;;;5038797;28;20480;-74
2023/05/24 11:50:42;;;;;;;10.80;4.50;;;16.10;99.90;;;;;;5032168;28;20457;-74
2023/05/24 11:53:10;;;;;;;16.17;5.37;;;16.20;99.90;;;;;;5030154;28;20449;-74
2023/05/24 11:55:38;;;;;;;16.17;5.20;;;16.20;99.90;;;;;;5037927;28;20811;-74
2023/05/24 11:58:10;;;;;;;18.37;5.50;;;16.30;99.90;;;;;;5033032;28;20455;-74
2023/05/24 12:00:37;;;;;;;15.70;4.90;;;16.50;99.90;;;;;;5035026;28;20480;-73
2023/05/24 12:03:06;;;;;;;13.43;4.87;;;16.60;99.90;;;;;;5040397;28;20571;-73
2023/05/24 12:05:33;;;;;;;11.00;4.77;;;16.60;99.90;;;;;;5038505;28;20426;-73
2023/05/24 12:08:06;;;;;;;16.23;5.40;;;16.50;99.90;;;;;;5038201;28;20420;-73
2023/05/24 12:10:34;;;;;;;11.47;4.90;;;16.40;99.90;;;;;;5031238;28;20981;-74
2023/05/24 12:13:02;;;;;;;14.70;4.00;;;16.30;99.90;;;;;;5040532;28;20511;-74
2023/05/24 12:15:29;;;;;;;21.27;5.00;;;16.00;99.90;;;;;;5042834;28;20425;-73
2023/05/24 12:17:56;;;;;;;17.17;5.10;;;15.90;99.90;;;;;;5030462;28;20880;-74
2023/05/24 12:20:23;;;;;;;12.00;4.70;;;15.90;99.90;;;;;;5042744;28;20514;-74
2023/05/24 12:22:51;;;;;;;16.97;4.57;;;15.90;99.90;;;;;;5046496;28;20447;-74
2023/05/24 12:25:20;;;;;;;8.33;4.73;;;16.00;99.90;;;;;;5030407;28;20434;-74
2023/05/24 12:27:47;;;;;;;8.43;4.40;;;16.30;99.90;;;;;;5029957;28;20460;-75
2023/05/24 12:30:19;;;;;;;18.57;4.70;;;16.60;99.90;;;;;;5040707;28;20480;-75
2023/05/24 12:32:46;;;;;;;13.90;4.57;;;16.90;99.90;;;;;;5029351;28;20457;-76
2023/05/24 12:35:13;;;;;;;11.30;4.93;;;16.80;99.90;;;;;;5037914;28;20432;-76
2023/05/24 12:37:40;;;;;;;15.20;5.43;;;16.80;99.90;;;;;;5036563;28;20481;-76
2023/05/24 12:40:16;;;;;;;18.43;5.00;;;16.60;99.90;;;;;;5039931;28;20937;-77
2023/05/24 12:42:45;;;;;;;13.13;4.97;;;16.50;99.90;;;;;;5030060;28;20628;-75
2023/05/24 12:45:12;;;;;;;18.63;5.27;;;16.50;99.90;;;;;;5039741;28;20453;-76